Time;durP1;ratioP1;P1;durP2;ratioP2;P2;SDS_P1;SDS_P2;PMS_P1;PMS_P2;Temp;Humidity;BMP_temperature;BMP_pressure;BME280_temperature;BME280_humidity;BME280_pressure;Samples;Min_cycle;Max_cycle;Signal;HPM_P1;HPM_P2
2021/08/06 00:01:48;;;;;;;17.83;16.13;;;16.00;99.90;;;;;;5072534;28;20204;-62
2021/08/06 00:04:16;;;;;;;16.60;14.95;;;16.00;99.90;;;;;;5072256;28;20668;-63
2021/08/06 00:06:45;;;;;;;15.38;13.98;;;16.00;99.90;;;;;;5072049;28;20220;-64
2021/08/06 00:09:13;;;;;;;15.43;13.93;;;15.90;99.90;;;;;;5072090;28;20201;-63
2021/08/06 00:11:41;;;;;;;15.32;13.90;;;15.90;99.90;;;;;;5072282;28;20314;-64
2021/08/06 00:14:09;;;;;;;15.70;14.02;;;15.90;99.90;;;;;;5072209;28;20296;-62
2021/08/06 00:16:37;;;;;;;14.85;13.43;;;15.80;99.90;;;;;;5072227;28;20208;-65
2021/08/06 00:19:05;;;;;;;14.82;13.43;;;15.80;99.90;;;;;;5072135;28;20201;-63
2021/08/06 00:21:33;;;;;;;14.13;12.88;;;15.70;99.90;;;;;;5071972;28;20216;-64
2021/08/06 00:24:02;;;;;;;14.93;13.63;;;15.70;99.90;;;;;;5071789;28;20201;-64
2021/08/06 00:26:30;;;;;;;14.40;12.98;;;15.70;99.90;;;;;;5072123;28;20252;-64
2021/08/06 00:28:58;;;;;;;13.73;12.43;;;15.80;99.90;;;;;;5071898;28;20208;-64
2021/08/06 00:31:26;;;;;;;13.20;11.80;;;15.70;99.90;;;;;;5072037;28;20222;-63
2021/08/06 00:33:54;;;;;;;14.05;12.57;;;15.70;99.90;;;;;;5071038;28;20680;-63
2021/08/06 00:36:22;;;;;;;15.13;13.63;;;15.60;99.90;;;;;;5071810;28;20606;-62
2021/08/06 00:38:49;;;;;;;13.85;12.52;;;15.70;99.90;;;;;;5071910;28;20203;-64
2021/08/06 00:41:19;;;;;;;14.25;12.95;;;15.70;99.90;;;;;;5071792;28;20209;-63
2021/08/06 00:43:46;;;;;;;13.73;12.52;;;15.70;99.90;;;;;;5071560;28;20218;-64
2021/08/06 00:46:16;;;;;;;14.52;13.02;;;15.60;99.90;;;;;;5071977;28;20191;-63
2021/08/06 00:48:44;;;;;;;14.73;13.25;;;15.60;99.90;;;;;;5071787;28;20256;-63
2021/08/06 00:51:12;;;;;;;13.55;12.27;;;15.70;99.90;;;;;;5071615;28;20653;-63
2021/08/06 00:53:41;;;;;;;12.93;11.75;;;15.60;99.90;;;;;;5071726;28;20203;-64
2021/08/06 00:56:09;;;;;;;13.77;12.45;;;15.60;99.90;;;;;;5071769;28;20200;-62
2021/08/06 00:58:39;;;;;;;13.98;12.68;;;15.60;99.90;;;;;;5071840;28;20199;-62
2021/08/06 01:01:07;;;;;;;14.38;12.90;;;15.70;99.90;;;;;;5071621;28;20196;-63
2021/08/06 01:03:45;;;;;;;13.80;12.45;;;15.70;99.90;;;;;;5071788;28;20235;-63
2021/08/06 01:06:18;;;;;;;14.50;13.07;;;15.70;99.90;;;;;;5071421;28;20181;-63
2021/08/06 01:08:50;;;;;;;14.63;13.23;;;15.80;99.90;;;;;;5071500;28;20207;-63
2021/08/06 01:11:22;;;;;;;14.45;13.05;;;15.90;99.90;;;;;;5071693;28;20751;-64
2021/08/06 01:13:54;;;;;;;14.80;13.35;;;15.90;99.90;;;;;;5071504;28;20547;-63
2021/08/06 01:16:27;;;;;;;16.67;15.02;;;16.00;99.90;;;;;;5071332;28;20185;-63
2021/08/06 01:19:07;;;;;;;15.95;14.45;;;16.00;99.90;;;;;;5071324;28;20217;-63
2021/08/06 01:21:44;;;;;;;18.23;16.33;;;16.00;99.90;;;;;;5071660;28;20185;-63
2021/08/06 01:24:14;;;;;;;18.25;16.35;;;16.00;99.90;;;;;;5071481;28;20181;-63
2021/08/06 01:26:46;;;;;;;17.30;15.60;;;16.00;99.90;;;;;;5071493;28;20203;-62
2021/08/06 01:29:15;;;;;;;17.05;15.35;;;16.00;99.90;;;;;;5071168;28;20958;-63
2021/08/06 01:31:43;;;;;;;17.55;14.85;;;15.90;99.90;;;;;;5071268;28;20732;-63
2021/08/06 01:34:12;;;;;;;16.38;14.68;;;15.90;99.90;;;;;;5071427;28;20201;-63
2021/08/06 01:36:39;;;;;;;16.95;14.73;;;15.90;99.90;;;;;;5071464;28;20292;-63
2021/08/06 01:39:08;;;;;;;17.85;15.20;;;15.80;99.90;;;;;;5071234;28;20193;-63
2021/08/06 01:41:42;;;;;;;18.90;16.63;;;15.80;99.90;;;;;;5071324;28;20196;-63
2021/08/06 01:44:16;;;;;;;18.10;16.33;;;15.80;99.90;;;;;;5071777;28;20711;-63
2021/08/06 01:46:49;;;;;;;18.10;16.23;;;15.90;99.90;;;;;;5075042;28;20188;-62
2021/08/06 01:49:22;;;;;;;21.40;17.08;;;15.80;99.90;;;;;;5074812;28;20201;-64
2021/08/06 01:54:17;;;;;;;18.52;16.63;;;15.80;99.90;;;;;;5062965;28;20675;-63
2021/08/06 01:56:46;;;;;;;18.40;16.60;;;15.90;99.90;;;;;;5072433;28;20235;-63
2021/08/06 01:59:16;;;;;;;20.05;17.88;;;15.80;99.90;;;;;;5074993;28;20716;-63
2021/08/06 02:01:44;;;;;;;18.75;16.83;;;15.80;99.90;;;;;;5075028;28;20288;-62
2021/08/06 02:04:13;;;;;;;19.02;16.70;;;15.90;99.90;;;;;;5075259;28;20209;-63
2021/08/06 02:06:43;;;;;;;17.67;15.82;;;15.90;99.90;;;;;;5075053;28;20677;-64
2021/08/06 02:09:15;;;;;;;18.50;16.42;;;15.80;99.90;;;;;;5074650;28;20380;-63
2021/08/06 02:11:43;;;;;;;20.85;17.20;;;15.90;99.90;;;;;;5075093;28;20189;-63
2021/08/06 02:14:12;;;;;;;18.55;16.63;;;15.90;99.90;;;;;;5074808;28;20577;-63
2021/08/06 02:16:42;;;;;;;21.65;17.45;;;15.90;99.90;;;;;;5075059;28;20197;-62
2021/08/06 02:19:13;;;;;;;18.33;16.42;;;15.90;99.90;;;;;;5075051;28;20203;-63
2021/08/06 02:21:42;;;;;;;21.80;16.83;;;15.80;99.90;;;;;;5075072;28;20181;-63
2021/08/06 02:24:12;;;;;;;18.60;16.70;;;15.80;99.90;;;;;;5059522;28;20300;-63
2021/08/06 02:26:43;;;;;;;19.00;16.38;;;15.80;99.90;;;;;;5054552;28;20225;-63
2021/08/06 02:29:14;;;;;;;19.20;16.90;;;15.80;99.90;;;;;;5074569;28;20296;-63
2021/08/06 02:31:44;;;;;;;22.15;17.15;;;15.80;99.90;;;;;;5074581;28;20276;-63
2021/08/06 02:34:13;;;;;;;17.27;15.30;;;15.80;99.90;;;;;;5074499;28;20621;-62
2021/08/06 02:36:42;;;;;;;17.63;15.63;;;15.80;99.90;;;;;;5074639;28;20204;-63
2021/08/06 02:39:15;;;;;;;17.00;15.07;;;15.80;99.90;;;;;;5074334;28;20193;-62
2021/08/06 02:41:43;;;;;;;19.10;16.23;;;15.80;99.90;;;;;;5074597;28;20276;-62
2021/08/06 02:44:11;;;;;;;17.15;15.32;;;15.70;99.90;;;;;;5074019;28;20328;-63
2021/08/06 02:46:40;;;;;;;18.10;15.52;;;15.70;99.90;;;;;;5074238;28;20211;-63
2021/08/06 02:49:09;;;;;;;17.20;15.40;;;15.70;99.90;;;;;;5074305;28;20213;-63
2021/08/06 02:51:37;;;;;;;16.75;14.65;;;15.60;99.90;;;;;;5074495;28;20239;-63
2021/08/06 02:54:06;;;;;;;20.00;15.73;;;15.60;99.90;;;;;;5074056;28;20469;-63
2021/08/06 02:56:34;;;;;;;17.23;15.30;;;15.60;99.90;;;;;;5073561;28;20203;-63
2021/08/06 02:59:02;;;;;;;17.13;15.32;;;15.60;99.90;;;;;;5074115;28;20193;-63
2021/08/06 03:01:30;;;;;;;17.90;16.00;;;15.50;99.90;;;;;;5074242;28;20219;-62
2021/08/06 03:03:58;;;;;;;17.10;15.25;;;15.50;99.90;;;;;;5074202;28;20208;-62
2021/08/06 03:06:27;;;;;;;18.58;16.48;;;15.50;99.90;;;;;;5075857;28;20231;-64
2021/08/06 03:08:55;;;;;;;18.48;16.58;;;15.50;99.90;;;;;;5075704;28;20220;-63
2021/08/06 03:11:23;;;;;;;18.73;16.42;;;15.50;99.90;;;;;;5076008;28;20201;-63
2021/08/06 03:13:51;;;;;;;16.90;15.13;;;15.60;99.90;;;;;;5074084;28;20201;-64
2021/08/06 03:16:19;;;;;;;17.40;15.60;;;15.50;99.90;;;;;;5073829;28;20200;-63
2021/08/06 03:18:47;;;;;;;16.58;14.88;;;15.50;99.90;;;;;;5073825;28;20197;-63
2021/08/06 03:21:15;;;;;;;15.63;13.85;;;15.50;99.90;;;;;;5073955;28;20291;-63
2021/08/06 03:23:45;;;;;;;18.10;16.20;;;15.50;99.90;;;;;;5062259;28;20209;-63
2021/08/06 03:26:12;;;;;;;17.88;16.08;;;15.50;99.90;;;;;;5053529;28;20557;-63
2021/08/06 03:28:40;;;;;;;16.58;14.88;;;15.50;99.90;;;;;;5053269;28;20221;-62
2021/08/06 03:31:08;;;;;;;16.55;14.90;;;15.50;99.90;;;;;;5053456;28;20673;-62
2021/08/06 03:33:36;;;;;;;16.83;15.23;;;15.50;99.90;;;;;;5053620;28;20232;-63
2021/08/06 03:36:04;;;;;;;16.08;14.45;;;15.50;99.90;;;;;;5053343;28;20205;-64
2021/08/06 03:38:32;;;;;;;17.00;15.30;;;15.60;99.90;;;;;;5053356;28;20209;-63
2021/08/06 03:41:01;;;;;;;16.73;14.95;;;15.60;99.90;;;;;;5053268;28;20201;-63
2021/08/06 03:43:29;;;;;;;17.30;15.52;;;15.50;99.90;;;;;;5053456;28;20197;-63
2021/08/06 03:45:57;;;;;;;17.15;15.35;;;15.60;99.90;;;;;;5052937;28;20229;-63
2021/08/06 03:48:25;;;;;;;16.00;14.50;;;15.60;99.90;;;;;;5053303;28;20315;-62
2021/08/06 03:50:53;;;;;;;16.00;14.43;;;15.60;99.90;;;;;;5053257;28;20297;-63
2021/08/06 03:53:20;;;;;;;15.15;13.55;;;15.60;99.90;;;;;;5052836;28;20208;-63
2021/08/06 03:55:48;;;;;;;15.70;14.20;;;15.50;99.90;;;;;;5052834;28;20201;-63
2021/08/06 03:58:17;;;;;;;15.00;13.55;;;15.60;99.90;;;;;;5053055;28;20201;-63
2021/08/06 04:00:45;;;;;;;14.18;12.77;;;15.60;99.90;;;;;;5053064;28;20202;-63
2021/08/06 04:03:13;;;;;;;16.00;13.90;;;15.60;99.90;;;;;;5072215;28;20232;-62
2021/08/06 04:05:40;;;;;;;13.75;12.35;;;15.60;99.90;;;;;;5073052;28;20207;-63
2021/08/06 04:08:10;;;;;;;18.10;14.05;;;15.70;99.90;;;;;;5072612;28;20329;-63
2021/08/06 04:10:38;;;;;;;14.13;12.73;;;15.60;99.90;;;;;;5072733;28;20287;-63
2021/08/06 04:13:06;;;;;;;15.25;13.80;;;15.60;99.90;;;;;;5072851;28;20202;-64
2021/08/06 04:15:35;;;;;;;14.25;12.85;;;15.60;99.90;;;;;;5072977;28;20200;-63
2021/08/06 04:18:03;;;;;;;14.63;13.23;;;15.70;99.90;;;;;;5072856;28;20206;-64
2021/08/06 04:20:31;;;;;;;14.70;13.20;;;15.80;99.90;;;;;;5072877;28;20283;-63
2021/08/06 04:22:59;;;;;;;14.05;12.57;;;15.80;99.90;;;;;;5071920;28;20886;-64
2021/08/06 04:25:28;;;;;;;14.68;13.23;;;15.70;99.90;;;;;;5072833;28;20350;-64
2021/08/06 04:27:56;;;;;;;14.25;12.85;;;15.70;99.90;;;;;;5072498;28;20616;-63
2021/08/06 04:30:24;;;;;;;14.80;13.40;;;15.70;99.90;;;;;;5072645;28;20247;-63
2021/08/06 04:32:53;;;;;;;14.45;12.95;;;15.80;99.90;;;;;;5072332;28;20250;-62
2021/08/06 04:35:21;;;;;;;14.15;12.80;;;15.80;99.90;;;;;;5072827;28;20613;-64
2021/08/06 04:37:51;;;;;;;14.60;13.00;;;15.90;99.90;;;;;;5072353;28;20566;-63
2021/08/06 04:40:20;;;;;;;14.95;13.55;;;15.90;99.90;;;;;;5072367;28;20643;-63
2021/08/06 04:42:49;;;;;;;14.32;12.90;;;16.00;99.90;;;;;;5072295;28;20612;-63
2021/08/06 04:45:17;;;;;;;14.85;13.43;;;16.00;99.90;;;;;;5072208;28;20402;-65
2021/08/06 04:47:46;;;;;;;15.55;14.05;;;16.00;99.90;;;;;;5072302;28;20723;-63
2021/08/06 04:50:18;;;;;;;14.98;13.48;;;16.00;99.90;;;;;;5071918;28;20588;-64
2021/08/06 04:52:51;;;;;;;15.57;14.07;;;16.00;99.90;;;;;;5071909;28;20721;-63
2021/08/06 04:55:19;;;;;;;15.73;14.23;;;16.10;99.90;;;;;;5072199;28;20648;-62
2021/08/06 04:57:47;;;;;;;15.65;14.15;;;16.20;99.90;;;;;;5072541;28;20633;-64
2021/08/06 05:00:16;;;;;;;14.50;13.10;;;16.20;99.90;;;;;;5072222;28;20589;-63
2021/08/06 05:02:44;;;;;;;16.38;14.68;;;16.30;99.90;;;;;;5072094;28;20402;-64
2021/08/06 05:05:13;;;;;;;15.73;14.13;;;16.30;99.90;;;;;;5072273;28;20288;-64
2021/08/06 05:07:48;;;;;;;15.95;14.35;;;16.30;99.90;;;;;;5071731;28;20295;-64
2021/08/06 05:10:18;;;;;;;15.30;13.80;;;16.40;99.90;;;;;;5072165;28;20544;-63
2021/08/06 05:12:45;;;;;;;14.00;12.60;;;16.40;99.90;;;;;;5072283;28;20323;-64
2021/08/06 05:15:14;;;;;;;14.90;13.27;;;16.40;99.90;;;;;;5071893;28;20670;-63
2021/08/06 05:17:42;;;;;;;15.27;13.68;;;16.50;99.90;;;;;;5072249;28;20291;-64
2021/08/06 05:20:12;;;;;;;13.80;12.40;;;16.70;99.90;;;;;;5074442;28;20208;-62
2021/08/06 05:22:40;;;;;;;14.40;13.00;;;16.90;99.90;;;;;;5072962;28;20700;-64
2021/08/06 05:25:10;;;;;;;13.80;12.50;;;17.20;99.90;;;;;;5055818;28;20212;-64
2021/08/06 05:27:37;;;;;;;13.05;11.75;;;17.40;99.90;;;;;;5055582;28;20669;-63
2021/08/06 05:30:06;;;;;;;12.55;11.35;;;17.60;99.90;;;;;;5055660;28;20225;-65
2021/08/06 05:32:34;;;;;;;12.85;11.65;;;17.80;99.90;;;;;;5055454;28;20202;-64
2021/08/06 05:35:02;;;;;;;13.88;12.57;;;17.90;99.90;;;;;;5055636;28;20292;-64
2021/08/06 05:37:30;;;;;;;11.38;10.38;;;17.70;99.90;;;;;;5055250;28;20208;-64
2021/08/06 05:39:58;;;;;;;11.80;10.70;;;17.90;99.90;;;;;;5055310;28;20232;-63
2021/08/06 05:42:27;;;;;;;11.10;10.10;;;17.90;99.90;;;;;;5055517;28;20292;-64
2021/08/06 05:44:55;;;;;;;12.63;11.43;;;18.00;99.90;;;;;;5055120;28;20347;-65
2021/08/06 05:47:22;;;;;;;12.90;11.70;;;17.90;99.90;;;;;;5055606;28;20603;-63
2021/08/06 05:49:50;;;;;;;13.43;12.02;;;18.00;99.90;;;;;;5055068;28;20730;-64
2021/08/06 05:52:19;;;;;;;13.05;11.82;;;18.00;99.90;;;;;;5055396;28;20198;-63
2021/08/06 05:54:46;;;;;;;12.80;11.60;;;18.00;99.90;;;;;;5074959;28;20232;-65
2021/08/06 05:57:14;;;;;;;13.98;12.50;;;18.20;99.90;;;;;;5074965;28;20295;-63
2021/08/06 05:59:43;;;;;;;14.50;13.20;;;18.40;99.90;;;;;;5074977;28;20553;-64
2021/08/06 06:02:11;;;;;;;14.35;12.95;;;18.50;99.90;;;;;;5074997;28;20200;-64
2021/08/06 06:04:39;;;;;;;12.13;10.82;;;18.80;99.90;;;;;;5075092;28;20196;-64
2021/08/06 06:07:07;;;;;;;11.07;9.98;;;18.80;99.90;;;;;;5074821;28;20688;-64
2021/08/06 06:09:35;;;;;;;11.13;10.07;;;19.00;99.90;;;;;;5074696;28;22179;-64
2021/08/06 06:12:03;;;;;;;12.32;11.25;;;19.00;99.90;;;;;;5075098;28;20582;-62
2021/08/06 06:14:31;;;;;;;11.23;10.13;;;19.20;99.90;;;;;;5075041;28;20254;-64
2021/08/06 06:17:00;;;;;;;9.65;8.85;;;19.20;99.90;;;;;;5074660;28;20738;-64
2021/08/06 06:19:28;;;;;;;9.73;8.82;;;19.30;99.90;;;;;;5074870;28;20300;-64
2021/08/06 06:21:55;;;;;;;9.77;8.93;;;19.40;99.90;;;;;;5074588;28;20197;-63
2021/08/06 06:24:23;;;;;;;10.48;8.43;;;19.50;99.90;;;;;;5074631;28;20332;-65
2021/08/06 06:26:51;;;;;;;9.45;8.65;;;19.60;99.90;;;;;;5074750;28;20288;-65
2021/08/06 06:29:19;;;;;;;10.10;9.10;;;19.60;99.90;;;;;;5074556;28;20576;-63
2021/08/06 06:31:47;;;;;;;9.93;9.07;;;19.60;99.90;;;;;;5073419;28;20327;-63
2021/08/06 06:34:16;;;;;;;10.93;9.85;;;19.60;99.90;;;;;;5074518;28;20247;-64
2021/08/06 06:36:44;;;;;;;10.45;9.07;;;19.60;99.90;;;;;;5074311;28;20204;-69
2021/08/06 06:39:12;;;;;;;10.02;9.23;;;19.60;99.90;;;;;;5074148;28;20648;-64
2021/08/06 06:41:40;;;;;;;10.18;9.18;;;19.60;99.90;;;;;;5074483;28;20221;-64
2021/08/06 06:44:07;;;;;;;9.75;8.75;;;19.70;99.90;;;;;;5074274;28;20239;-65
2021/08/06 06:46:35;;;;;;;10.13;9.15;;;19.60;99.90;;;;;;5074552;28;20571;-63
2021/08/06 06:49:03;;;;;;;8.43;7.63;;;19.70;99.90;;;;;;5074392;28;20200;-63
2021/08/06 06:51:32;;;;;;;9.95;9.00;;;19.80;99.90;;;;;;5074347;28;20217;-67
2021/08/06 06:54:00;;;;;;;8.40;7.38;;;19.80;99.90;;;;;;5074017;28;20215;-64
2021/08/06 06:56:28;;;;;;;8.95;7.57;;;19.80;99.90;;;;;;5074354;28;20207;-64
2021/08/06 06:58:55;;;;;;;8.15;7.45;;;19.80;99.90;;;;;;5074276;28;20592;-63
2021/08/06 07:01:23;;;;;;;8.30;7.63;;;19.90;99.90;;;;;;5074095;28;20199;-64
2021/08/06 07:03:51;;;;;;;8.65;7.95;;;19.90;99.90;;;;;;5073920;28;20684;-65
2021/08/06 07:06:20;;;;;;;7.93;7.25;;;19.90;99.90;;;;;;5074135;28;20235;-64
2021/08/06 07:08:49;;;;;;;8.93;8.13;;;19.90;99.90;;;;;;5073968;28;20207;-64
2021/08/06 07:11:18;;;;;;;8.48;7.63;;;19.90;99.90;;;;;;5074052;28;20423;-64
2021/08/06 07:13:45;;;;;;;7.57;6.97;;;19.90;99.90;;;;;;5074126;28;20201;-64
2021/08/06 07:16:13;;;;;;;7.47;6.78;;;19.90;99.90;;;;;;5074054;28;20223;-64
2021/08/06 07:18:41;;;;;;;8.65;7.85;;;19.80;99.90;;;;;;5073427;28;20620;-63
2021/08/06 07:21:12;;;;;;;7.65;7.05;;;19.70;99.90;;;;;;5073364;28;20201;-64
2021/08/06 07:23:40;;;;;;;7.53;6.93;;;19.70;99.90;;;;;;5073373;28;20201;-64
2021/08/06 07:26:09;;;;;;;8.63;7.82;;;19.70;99.90;;;;;;5073615;28;20603;-63
2021/08/06 07:28:37;;;;;;;6.80;6.28;;;19.40;99.90;;;;;;5073691;28;20221;-64
2021/08/06 07:31:05;;;;;;;6.90;6.30;;;19.50;99.90;;;;;;5073180;28;20231;-64
2021/08/06 07:33:33;;;;;;;6.25;5.75;;;19.40;99.90;;;;;;5073117;28;20675;-62
2021/08/06 07:36:01;;;;;;;7.15;6.45;;;19.50;99.90;;;;;;5073011;28;20668;-63
2021/08/06 07:38:28;;;;;;;7.35;6.65;;;19.50;99.90;;;;;;5072747;28;20744;-65
2021/08/06 07:40:57;;;;;;;6.13;5.38;;;19.40;99.90;;;;;;5066379;28;20650;-63
2021/08/06 07:43:26;;;;;;;6.28;5.68;;;19.60;99.90;;;;;;5052600;28;20219;-64
2021/08/06 07:45:54;;;;;;;5.40;5.00;;;19.60;99.90;;;;;;5052849;28;20400;-64
2021/08/06 07:48:22;;;;;;;5.50;5.10;;;19.70;99.90;;;;;;5053027;28;20203;-63
2021/08/06 07:50:50;;;;;;;6.32;5.72;;;19.70;99.90;;;;;;5052944;28;20227;-63
2021/08/06 07:53:18;;;;;;;5.60;5.10;;;19.90;99.90;;;;;;5060524;28;20205;-63
2021/08/06 07:55:46;;;;;;;5.82;5.00;;;19.90;99.90;;;;;;5072899;28;20204;-64
2021/08/06 07:58:14;;;;;;;4.53;4.13;;;19.90;99.90;;;;;;5074613;28;20196;-64
2021/08/06 08:00:43;;;;;;;4.78;4.38;;;19.80;99.90;;;;;;5074939;28;20203;-65
2021/08/06 08:03:11;;;;;;;4.75;4.35;;;19.90;99.90;;;;;;5074145;28;20200;-63
2021/08/06 08:05:38;;;;;;;4.93;4.43;;;20.00;99.90;;;;;;5072826;28;20196;-63
2021/08/06 08:08:06;;;;;;;5.30;4.78;;;20.10;99.90;;;;;;5072599;28;20233;-64
2021/08/06 08:10:35;;;;;;;4.00;3.67;;;20.30;99.90;;;;;;5072542;28;20207;-64
2021/08/06 08:13:09;;;;;;;4.75;4.28;;;20.50;99.90;;;;;;5072964;28;20188;-63
2021/08/06 08:15:38;;;;;;;4.30;3.92;;;20.50;99.90;;;;;;5072397;28;20210;-64
2021/08/06 08:18:07;;;;;;;5.18;4.68;;;20.60;99.90;;;;;;5072418;28;20664;-64
2021/08/06 08:20:35;;;;;;;6.57;4.93;;;20.70;99.90;;;;;;5072748;28;20607;-64
2021/08/06 08:23:03;;;;;;;4.93;4.53;;;20.70;99.90;;;;;;5072230;28;20832;-64
2021/08/06 08:25:31;;;;;;;5.05;4.63;;;20.70;99.90;;;;;;5072480;28;20731;-65
2021/08/06 08:27:59;;;;;;;5.40;4.40;;;20.80;99.90;;;;;;5072567;28;20664;-65
2021/08/06 08:30:27;;;;;;;5.22;4.32;;;20.90;99.90;;;;;;5072594;28;20201;-64
2021/08/06 08:32:58;;;;;;;5.00;4.53;;;21.10;99.90;;;;;;5072506;28;20547;-63
2021/08/06 08:35:27;;;;;;;6.28;5.15;;;21.40;99.90;;;;;;5072620;28;20296;-65
2021/08/06 08:37:55;;;;;;;5.43;4.93;;;21.40;99.90;;;;;;5072404;28;20196;-64
2021/08/06 08:40:23;;;;;;;6.28;5.05;;;21.60;99.90;;;;;;5072479;28;20295;-64
2021/08/06 08:42:51;;;;;;;5.50;5.00;;;21.90;99.90;;;;;;5072172;28;20211;-65
2021/08/06 08:45:23;;;;;;;5.28;4.18;;;22.20;99.90;;;;;;5072146;28;20224;-64
2021/08/06 08:47:52;;;;;;;4.53;4.13;;;22.30;99.90;;;;;;5072540;28;20207;-64
2021/08/06 08:50:21;;;;;;;5.60;3.90;;;22.60;99.90;;;;;;5072443;28;20197;-64
2021/08/06 08:52:51;;;;;;;4.93;4.32;;;22.80;99.90;;;;;;5071969;28;20587;-65
2021/08/06 08:55:19;;;;;;;4.30;4.00;;;22.80;99.90;;;;;;5075345;28;20207;-64
2021/08/06 08:57:47;;;;;;;4.30;4.00;;;22.80;99.90;;;;;;5076546;28;20204;-64
2021/08/06 09:00:16;;;;;;;3.60;3.30;;;22.80;99.90;;;;;;5075875;28;20701;-64
2021/08/06 09:02:44;;;;;;;4.95;4.47;;;22.80;99.90;;;;;;5076271;28;20197;-64
2021/08/06 09:05:14;;;;;;;4.50;4.03;;;23.00;99.90;;;;;;5075965;28;20204;-64
2021/08/06 09:07:43;;;;;;;4.20;3.85;;;22.90;99.90;;;;;;5073279;28;20272;-67
2021/08/06 09:10:16;;;;;;;5.22;4.28;;;22.90;99.90;;;;;;5072335;28;20197;-67
2021/08/06 09:12:51;;;;;;;4.95;4.50;;;22.90;99.90;;;;;;5072680;28;20205;-66
2021/08/06 09:15:35;;;;;;;5.90;4.10;;;23.00;99.90;;;;;;5072710;28;20204;-65
2021/08/06 09:18:03;;;;;;;3.60;3.30;;;23.10;99.90;;;;;;5072635;28;20243;-65
2021/08/06 09:20:39;;;;;;;3.35;3.15;;;23.20;99.90;;;;;;5072449;28;20200;-68
2021/08/06 09:23:07;;;;;;;3.85;3.38;;;23.30;99.90;;;;;;5072000;28;20287;-66
2021/08/06 09:25:38;;;;;;;3.25;2.95;;;23.30;99.90;;;;;;5072266;28;20203;-65
2021/08/06 09:28:06;;;;;;;3.90;3.60;;;23.30;99.90;;;;;;5072293;28;20241;-64
2021/08/06 09:30:36;;;;;;;5.20;3.72;;;23.30;99.90;;;;;;5072303;28;20228;-65
2021/08/06 09:33:07;;;;;;;3.63;3.35;;;23.30;99.90;;;;;;5072326;28;20247;-65
2021/08/06 09:35:36;;;;;;;3.50;3.20;;;23.20;99.90;;;;;;5072243;28;20207;-65
2021/08/06 09:38:05;;;;;;;3.30;3.00;;;23.20;99.90;;;;;;5072193;28;20296;-64
2021/08/06 09:40:39;;;;;;;3.83;3.22;;;23.20;99.90;;;;;;5071998;28;20292;-69
2021/08/06 09:43:16;;;;;;;3.30;3.00;;;23.10;99.90;;;;;;5071871;28;20535;-68
2021/08/06 09:45:44;;;;;;;4.47;3.97;;;23.10;99.90;;;;;;5067661;28;20320;-65
2021/08/06 09:48:13;;;;;;;3.70;3.40;;;22.80;99.90;;;;;;5068393;28;20200;-70
2021/08/06 09:50:43;;;;;;;3.78;3.47;;;22.70;99.90;;;;;;5072135;28;20296;-66
2021/08/06 09:53:13;;;;;;;4.80;3.90;;;22.70;99.90;;;;;;5071768;28;20311;-66
2021/08/06 09:55:44;;;;;;;4.72;4.00;;;22.90;99.90;;;;;;5071961;28;20236;-65
2021/08/06 09:58:14;;;;;;;4.32;3.95;;;22.90;99.90;;;;;;5071515;28;20692;-67
2021/08/06 10:00:45;;;;;;;6.38;3.92;;;22.80;99.90;;;;;;5072103;28;20270;-68
2021/08/06 10:03:26;;;;;;;4.38;4.07;;;22.80;99.90;;;;;;5071828;28;20205;-66
2021/08/06 10:06:10;;;;;;;4.40;4.00;;;22.90;99.90;;;;;;5071235;28;20609;-67
2021/08/06 10:08:39;;;;;;;5.40;4.90;;;23.10;99.90;;;;;;5069566;28;20299;-68
2021/08/06 10:11:08;;;;;;;4.80;4.40;;;23.30;99.90;;;;;;5071447;28;20569;-67
2021/08/06 10:13:37;;;;;;;4.60;4.20;;;23.70;99.90;;;;;;5070973;28;20324;-70
2021/08/06 10:16:05;;;;;;;3.40;3.08;;;24.10;99.90;;;;;;5070952;28;20848;-67
2021/08/06 10:18:34;;;;;;;3.47;3.17;;;24.30;99.90;;;;;;5070987;28;20203;-69
2021/08/06 10:21:02;;;;;;;4.00;3.45;;;24.40;99.90;;;;;;5071088;28;20248;-71
2021/08/06 10:23:29;;;;;;;3.20;2.90;;;24.70;99.90;;;;;;5070911;28;20232;-69
2021/08/06 10:25:58;;;;;;;3.40;3.10;;;24.80;99.90;;;;;;5071210;28;20213;-68
2021/08/06 10:28:31;;;;;;;3.00;2.67;;;24.70;99.90;;;;;;5071240;28;20212;-68
2021/08/06 10:31:17;;;;;;;3.42;3.13;;;24.60;99.90;;;;;;5070944;28;20280;-66
2021/08/06 10:34:02;;;;;;;3.00;2.80;;;24.40;99.90;;;;;;5070959;28;20311;-65
2021/08/06 10:36:40;;;;;;;3.05;2.85;;;24.00;99.90;;;;;;5070404;28;20195;-66
2021/08/06 10:39:44;;;;;;;4.68;3.20;;;23.90;99.90;;;;;;5070418;28;20271;-66
2021/08/06 10:42:12;;;;;;;2.53;2.33;;;23.70;99.90;;;;;;5065993;28;20223;-66
2021/08/06 10:44:53;;;;;;;2.63;2.42;;;23.60;99.90;;;;;;5070339;28;20260;-66
2021/08/06 10:47:21;;;;;;;2.80;2.60;;;23.50;99.90;;;;;;5070447;28;20185;-66
2021/08/06 10:50:14;;;;;;;3.22;2.92;;;23.50;99.90;;;;;;5070363;28;20232;-65
2021/08/06 10:52:42;;;;;;;2.95;2.65;;;23.60;99.90;;;;;;5070329;28;20610;-66
2021/08/06 10:55:18;;;;;;;2.85;2.65;;;23.80;99.90;;;;;;5070327;28;20274;-66
2021/08/06 10:57:46;;;;;;;2.55;2.30;;;24.00;99.90;;;;;;5070517;28;20207;-66
2021/08/06 11:00:35;;;;;;;2.80;2.60;;;24.00;99.90;;;;;;5070196;28;20199;-66
2021/08/06 11:03:04;;;;;;;2.75;2.22;;;24.10;99.90;;;;;;5070137;28;20629;-66
2021/08/06 11:05:44;;;;;;;3.42;2.22;;;24.20;99.90;;;;;;5070197;28;20262;-65
2021/08/06 11:08:56;;;;;;;3.08;2.80;;;24.10;99.90;;;;;;5069917;28;20275;-67
2021/08/06 11:11:55;;;;;;;2.53;2.33;;;24.00;99.90;;;;;;5070225;28;20212;-68
2021/08/06 11:14:57;;;;;;;3.25;2.47;;;24.10;99.90;;;;;;5070373;28;20228;-69
2021/08/06 11:17:34;;;;;;;2.75;2.55;;;24.20;99.90;;;;;;5069776;28;20188;-64
2021/08/06 11:20:10;;;;;;;2.70;2.50;;;24.10;99.90;;;;;;5070389;28;20185;-66
2021/08/06 11:22:40;;;;;;;2.63;2.42;;;24.20;99.90;;;;;;5070052;28;20187;-66
2021/08/06 11:25:15;;;;;;;3.78;2.40;;;24.60;99.90;;;;;;5070092;28;20291;-66
2021/08/06 11:27:45;;;;;;;2.35;2.15;;;25.10;99.90;;;;;;5070276;28;20224;-67
2021/08/06 11:30:16;;;;;;;2.40;2.20;;;25.70;99.90;;;;;;5070174;28;20201;-67
2021/08/06 11:32:51;;;;;;;2.45;2.25;;;26.20;99.90;;;;;;5069709;28;20211;-68
2021/08/06 11:35:20;;;;;;;2.33;2.10;;;26.30;99.90;;;;;;5070272;28;20207;-66
2021/08/06 11:37:56;;;;;;;2.58;2.38;;;26.30;99.90;;;;;;5070073;28;20287;-64
2021/08/06 11:40:27;;;;;;;3.28;2.47;;;26.20;99.90;;;;;;5069457;28;20704;-63
2021/08/06 11:42:55;;;;;;;2.75;2.55;;;25.90;99.90;;;;;;5070088;28;20215;-65
2021/08/06 11:45:25;;;;;;;3.55;2.20;;;25.60;99.90;;;;;;5069192;28;20768;-67
2021/08/06 11:48:00;;;;;;;2.33;2.20;;;25.30;99.90;;;;;;5069698;28;20787;-67
2021/08/06 11:50:38;;;;;;;3.08;2.22;;;24.90;99.90;;;;;;5069951;28;20275;-67
2021/08/06 11:53:12;;;;;;;2.50;2.30;;;24.60;99.90;;;;;;5069364;28;20212;-67
2021/08/06 11:55:40;;;;;;;2.60;2.40;;;24.10;99.90;;;;;;5069860;28;20225;-67
2021/08/06 11:58:08;;;;;;;2.58;2.38;;;23.80;99.90;;;;;;5069822;28;20218;-69
2021/08/06 12:00:38;;;;;;;2.47;2.28;;;23.60;99.90;;;;;;5069324;28;20243;-69
2021/08/06 12:03:15;;;;;;;2.63;2.42;;;23.40;99.90;;;;;;5069555;28;20205;-68
2021/08/06 12:05:45;;;;;;;2.88;2.53;;;23.20;99.90;;;;;;5069426;28;20564;-67
2021/08/06 12:08:14;;;;;;;3.65;2.80;;;23.10;99.90;;;;;;5069314;28;20242;-66
2021/08/06 12:10:44;;;;;;;6.72;2.80;;;22.80;99.90;;;;;;5069295;28;20795;-66
2021/08/06 12:13:13;;;;;;;2.20;2.00;;;22.40;99.90;;;;;;5069311;28;20719;-68
2021/08/06 12:15:41;;;;;;;2.45;2.25;;;22.10;99.90;;;;;;5069716;28;20207;-68
2021/08/06 12:18:10;;;;;;;2.42;2.20;;;21.90;99.90;;;;;;5069191;28;20299;-66
2021/08/06 12:20:41;;;;;;;2.00;1.77;;;21.50;99.90;;;;;;5069580;28;20575;-66
2021/08/06 12:23:10;;;;;;;2.17;1.70;;;21.30;99.90;;;;;;5068704;28;20690;-68
2021/08/06 12:25:39;;;;;;;1.60;1.50;;;20.90;99.90;;;;;;5068987;28;20197;-69
2021/08/06 12:28:21;;;;;;;2.80;1.60;;;20.70;99.90;;;;;;5069222;28;20278;-68
2021/08/06 12:30:49;;;;;;;1.40;1.30;;;20.40;99.90;;;;;;5069574;28;20184;-69
2021/08/06 12:33:22;;;;;;;1.95;1.60;;;20.10;99.90;;;;;;5069252;28;20320;-69
2021/08/06 12:35:51;;;;;;;2.00;1.80;;;19.90;99.90;;;;;;5069489;28;20267;-69
2021/08/06 12:38:25;;;;;;;2.13;1.73;;;19.60;99.90;;;;;;5069080;28;20208;-68
2021/08/06 12:40:53;;;;;;;1.90;1.80;;;19.40;99.90;;;;;;5069277;28;20265;-67
2021/08/06 12:43:22;;;;;;;1.92;1.83;;;19.30;99.90;;;;;;5071574;28;20288;-66
2021/08/06 12:46:22;;;;;;;2.45;2.25;;;19.20;99.90;;;;;;5071455;28;20232;-65
2021/08/06 12:49:04;;;;;;;3.60;2.40;;;19.20;99.90;;;;;;5050252;28;20185;-66
2021/08/06 12:51:34;;;;;;;2.42;2.13;;;19.50;99.90;;;;;;5049839;28;20292;-64
2021/08/06 12:54:02;;;;;;;2.80;2.15;;;19.80;99.90;;;;;;5062981;28;20222;-63
2021/08/06 12:56:54;;;;;;;2.22;2.03;;;20.20;99.90;;;;;;5068850;28;20280;-64